createdAt,value
2019-05-10T00:00:12.095Z,9.45
2019-05-10T00:02:04.713Z,9.37
2019-05-10T00:03:57.091Z,9.42
2019-05-10T00:05:49.693Z,9.34
2019-05-10T00:07:42.076Z,9.29
2019-05-10T00:09:15.925Z,9.33
2019-05-10T00:10:52.834Z,9.32
2019-05-10T00:12:41.315Z,9.37
2019-05-10T00:14:38.662Z,9.35
2019-05-10T00:16:13.763Z,9.25
2019-05-10T00:17:48.589Z,9.26
2019-05-10T00:19:23.511Z,9.18
2019-05-10T00:20:58.540Z,9.06
2019-05-10T00:22:33.369Z,9.17
2019-05-10T00:24:08.039Z,9.06
2019-05-10T00:25:43.095Z,9.14
2019-05-10T00:27:18.115Z,9.11
2019-05-10T00:28:53.024Z,9.08
2019-05-10T00:30:27.729Z,9.09
2019-05-10T00:32:02.562Z,9.16
2019-05-10T00:33:37.219Z,9.21
2019-05-10T00:35:12.137Z,9.26
2019-05-10T00:36:46.791Z,9.19
2019-05-10T00:38:21.623Z,9.09
2019-05-10T00:39:56.338Z,9.15
2019-05-10T00:41:31.167Z,9.26
2019-05-10T00:43:05.896Z,9.17
2019-05-10T00:44:40.738Z,9.18
2019-05-10T00:46:15.388Z,9.24
2019-05-10T00:47:50.216Z,9.20
2019-05-10T00:49:24.938Z,9.29
2019-05-10T00:50:59.775Z,9.44
2019-05-10T00:52:34.444Z,9.28
2019-05-10T00:54:09.365Z,9.22
2019-05-10T00:55:44.085Z,9.19
2019-05-10T00:57:19.053Z,9.22
2019-05-10T00:58:53.712Z,9.19
2019-05-10T01:00:34.794Z,9.21
2019-05-10T01:02:09.439Z,9.23
2019-05-10T01:03:44.276Z,9.17
2019-05-10T01:05:18.908Z,9.15
2019-05-10T01:06:56.443Z,9.12
2019-05-10T01:08:31.390Z,9.11
2019-05-10T01:10:06.637Z,9.11
2019-05-10T01:11:41.263Z,9.10
2019-05-10T01:13:16.165Z,9.13
2019-05-10T01:14:50.840Z,9.10
2019-05-10T01:16:25.650Z,9.11
2019-05-10T01:18:00.281Z,9.09
2019-05-10T01:19:35.215Z,9.18
2019-05-10T01:21:09.863Z,9.22
2019-05-10T01:22:44.693Z,9.24
2019-05-10T01:24:19.363Z,9.33
2019-05-10T01:25:54.209Z,9.35
2019-05-10T01:27:28.894Z,9.36
2019-05-10T01:29:03.818Z,9.39
2019-05-10T01:30:38.548Z,9.44
2019-05-10T01:32:13.542Z,9.47
2019-05-10T01:33:48.210Z,9.55
2019-05-10T01:35:23.051Z,9.70
2019-05-10T01:36:57.684Z,9.73
2019-05-10T01:38:32.504Z,9.74
2019-05-10T01:40:07.298Z,9.75
2019-05-10T01:41:42.139Z,9.82
2019-05-10T01:43:16.858Z,9.78
2019-05-10T01:44:51.673Z,9.73
2019-05-10T01:46:26.367Z,9.78
2019-05-10T01:48:01.188Z,9.76
2019-05-10T01:49:35.899Z,9.87
2019-05-10T01:51:11.072Z,9.92
2019-05-10T01:52:45.667Z,9.91
2019-05-10T01:54:20.599Z,9.96
2019-05-10T01:55:55.235Z,9.96
2019-05-10T01:57:30.088Z,10.04
2019-05-10T01:59:04.727Z,10.05
2019-05-10T02:00:39.635Z,10.03
2019-05-10T02:02:14.354Z,10.14
2019-05-10T02:03:49.184Z,10.22
2019-05-10T02:05:23.847Z,10.33
2019-05-10T02:06:58.672Z,10.22
2019-05-10T02:08:33.333Z,10.27
2019-05-10T02:10:08.241Z,10.35
2019-05-10T02:11:42.981Z,10.32
2019-05-10T02:13:17.829Z,10.50
2019-05-10T02:14:52.579Z,10.50
2019-05-10T02:16:27.407Z,10.55
2019-05-10T02:18:02.112Z,10.49
2019-05-10T02:19:36.970Z,10.47
2019-05-10T02:21:11.707Z,10.51
2019-05-10T02:22:46.582Z,10.55
2019-05-10T02:24:21.398Z,10.53
2019-05-10T02:26:09.040Z,10.53
2019-05-10T02:27:32.606Z,10.41
2019-05-10T02:29:07.415Z,10.33
2019-05-10T02:30:42.093Z,10.32
2019-05-10T02:32:16.929Z,10.36
2019-05-10T02:33:51.576Z,10.36
2019-05-10T02:35:26.501Z,10.45
2019-05-10T02:37:02.224Z,10.45
2019-05-10T02:38:37.121Z,10.47
2019-05-10T02:40:12.119Z,10.48
2019-05-10T02:41:46.964Z,10.43
2019-05-10T02:43:21.694Z,10.46
2019-05-10T02:44:56.620Z,10.43
2019-05-10T02:46:31.255Z,10.48
2019-05-10T02:48:06.099Z,10.53
2019-05-10T02:49:40.753Z,10.36
2019-05-10T02:51:17.841Z,10.36
2019-05-10T02:52:52.493Z,10.49
2019-05-10T02:54:27.345Z,10.55
2019-05-10T02:56:03.802Z,10.58
2019-05-10T02:57:38.822Z,10.55
2019-05-10T02:59:13.763Z,10.49
2019-05-10T03:00:50.115Z,10.49
2019-05-10T03:02:25.861Z,10.60
2019-05-10T03:04:02.435Z,10.46
2019-05-10T03:05:37.804Z,10.54
2019-05-10T03:07:12.671Z,10.55
2019-05-10T03:08:48.947Z,10.54
2019-05-10T03:10:23.844Z,10.56
2019-05-10T03:12:01.718Z,10.44
2019-05-10T03:13:36.547Z,10.44
2019-05-10T03:15:12.282Z,10.47
2019-05-10T03:16:50.435Z,10.42
2019-05-10T03:18:27.238Z,10.54
2019-05-10T03:20:02.503Z,10.60
2019-05-10T03:21:39.242Z,10.47
2019-05-10T03:23:14.280Z,10.55
2019-05-10T03:24:50.542Z,10.55
2019-05-10T03:26:25.412Z,10.61
2019-05-10T03:28:00.042Z,10.64
2019-05-10T03:29:34.935Z,10.68
2019-05-10T03:31:09.689Z,10.65
2019-05-10T03:32:44.632Z,10.56
2019-05-10T03:34:19.345Z,10.50
2019-05-10T03:35:54.253Z,10.69
2019-05-10T03:37:28.909Z,10.71
2019-05-10T03:40:56.131Z,10.76
2019-05-10T03:42:31.073Z,10.87
2019-05-10T03:44:05.746Z,10.74
2019-05-10T03:45:40.618Z,10.74
2019-05-10T03:47:15.406Z,10.76
2019-05-10T03:48:50.270Z,10.65
2019-05-10T03:50:25.341Z,10.80
2019-05-10T03:52:00.157Z,10.74
2019-05-10T03:53:34.892Z,10.74
2019-05-10T03:55:09.785Z,10.71
2019-05-10T03:56:44.436Z,10.73
2019-05-10T03:58:19.279Z,10.53
2019-05-10T03:59:53.941Z,10.63
2019-05-10T04:01:29.758Z,10.66
2019-05-10T04:03:04.500Z,10.60
2019-05-10T04:04:39.402Z,10.68
2019-05-10T04:06:14.041Z,10.64
2019-05-10T04:07:48.907Z,10.78
2019-05-10T04:09:23.660Z,10.71
2019-05-10T04:10:58.533Z,10.66
2019-05-10T04:12:33.272Z,10.78
2019-05-10T04:14:08.134Z,10.78
2019-05-10T04:15:42.818Z,10.78
2019-05-10T04:17:17.651Z,10.78
2019-05-10T04:18:52.380Z,10.97
2019-05-10T04:20:27.288Z,10.98
2019-05-10T04:22:01.974Z,10.93
2019-05-10T04:23:36.846Z,11.03
2019-05-10T04:25:11.632Z,11.20
2019-05-10T04:26:46.607Z,11.00
2019-05-10T04:28:21.261Z,10.87
2019-05-10T04:29:56.121Z,10.87
2019-05-10T04:31:30.789Z,11.04
2019-05-10T04:33:05.954Z,11.06
2019-05-10T04:34:40.596Z,11.19
2019-05-10T04:36:15.430Z,11.19
2019-05-10T04:37:50.070Z,11.11
2019-05-10T04:39:24.986Z,11.22
2019-05-10T04:40:59.706Z,11.22
2019-05-10T04:42:34.627Z,10.99
2019-05-10T04:44:09.303Z,10.89
2019-05-10T04:45:44.147Z,10.89
2019-05-10T04:47:19.915Z,10.77
2019-05-10T04:48:54.774Z,10.90
2019-05-10T04:50:29.450Z,10.90
2019-05-10T04:52:04.451Z,11.03
2019-05-10T04:53:39.097Z,11.12
2019-05-10T04:55:14.226Z,11.01
2019-05-10T04:56:48.915Z,11.01
2019-05-10T04:58:23.856Z,11.06
2019-05-10T04:59:58.483Z,11.53
2019-05-10T05:01:33.360Z,11.47
2019-05-10T05:03:08.034Z,11.66
2019-05-10T05:04:42.886Z,12.94
2019-05-10T05:06:17.528Z,12.94
2019-05-10T05:07:52.366Z,12.91
2019-05-10T05:09:27.040Z,12.91
2019-05-10T05:11:01.968Z,15.32
2019-05-10T05:12:36.633Z,12.85
2019-05-10T05:14:11.465Z,12.85
2019-05-10T05:15:46.147Z,14.23
2019-05-10T05:17:20.994Z,14.88
2019-05-10T05:18:55.661Z,14.32
2019-05-10T05:20:30.537Z,14.47
2019-05-10T05:22:05.358Z,14.84
2019-05-10T05:23:40.218Z,13.65
2019-05-10T05:25:15.054Z,12.77
2019-05-10T05:26:49.911Z,12.78
2019-05-10T05:28:24.764Z,12.59
2019-05-10T05:29:59.732Z,12.91
2019-05-10T05:31:34.406Z,12.82
2019-05-10T05:33:09.242Z,12.21
2019-05-10T05:34:43.919Z,12.43
2019-05-10T05:36:18.786Z,12.21
2019-05-10T05:37:53.530Z,12.53
2019-05-10T05:39:28.422Z,14.33
2019-05-10T05:41:03.125Z,14.30
2019-05-10T05:42:37.986Z,16.26
2019-05-10T05:44:12.683Z,14.57
2019-05-10T05:45:48.590Z,13.38
2019-05-10T05:47:23.276Z,17.22
2019-05-10T05:48:58.131Z,22.13
2019-05-10T05:50:32.787Z,23.37
2019-05-10T05:52:08.707Z,22.65
2019-05-10T05:53:44.825Z,23.89
2019-05-10T05:55:22.939Z,26.63
2019-05-10T05:56:56.137Z,24.97
2019-05-10T05:58:31.067Z,25.24
2019-05-10T06:00:06.810Z,27.07
2019-05-10T06:01:41.708Z,26.33
2019-05-10T06:03:19.452Z,27.72
2019-05-10T06:04:52.910Z,30.64
2019-05-10T06:06:27.548Z,29.81
2019-05-10T06:08:02.531Z,29.91
2019-05-10T06:09:38.000Z,20.88
2019-05-10T06:11:13.717Z,18.45
2019-05-10T06:12:50.438Z,17.03
2019-05-10T06:14:25.093Z,15.39
2019-05-10T06:16:00.708Z,15.26
2019-05-10T06:17:36.315Z,15.01
2019-05-10T06:19:11.061Z,13.78
2019-05-10T06:20:47.014Z,13.88
2019-05-10T06:22:21.749Z,13.88
2019-05-10T06:23:59.353Z,13.32
2019-05-10T06:25:39.706Z,13.71
2019-05-10T06:27:09.469Z,13.03
2019-05-10T06:28:58.550Z,13.14
2019-05-10T06:30:20.804Z,13.06
2019-05-10T06:31:58.706Z,12.88
2019-05-10T06:33:32.043Z,13.02
2019-05-10T06:35:06.753Z,13.06
2019-05-10T06:36:41.662Z,13.07
2019-05-10T06:38:16.373Z,12.98
2019-05-10T06:39:52.393Z,12.44
2019-05-10T06:41:27.059Z,12.87
2019-05-10T06:43:07.119Z,12.87
2019-05-10T06:44:38.409Z,12.94
2019-05-10T06:46:13.320Z,13.04
2019-05-10T06:47:49.681Z,12.93
2019-05-10T06:49:24.538Z,12.55
2019-05-10T06:51:03.025Z,12.61
2019-05-10T06:52:35.806Z,12.37
2019-05-10T06:54:10.466Z,12.64
2019-05-10T06:55:45.284Z,12.85
2019-05-10T06:57:19.973Z,12.92
2019-05-10T06:58:54.972Z,13.00
2019-05-10T07:00:29.755Z,12.93
2019-05-10T07:02:04.673Z,12.94
2019-05-10T07:03:39.324Z,12.88
2019-05-10T07:05:14.235Z,13.03
2019-05-10T07:06:48.910Z,12.68
2019-05-10T07:08:24.037Z,12.82
2019-05-10T07:10:05.710Z,12.89
2019-05-10T07:11:35.328Z,12.78
2019-05-10T07:13:11.667Z,13.00
2019-05-10T07:14:46.913Z,12.84
2019-05-10T07:16:24.451Z,12.88
2019-05-10T07:17:58.313Z,13.16
2019-05-10T07:19:58.289Z,12.54
2019-05-10T07:21:33.132Z,12.62
2019-05-10T07:23:08.028Z,12.42
2019-05-10T07:24:43.042Z,12.37
2019-05-10T07:26:24.299Z,12.57
2019-05-10T07:27:54.401Z,12.01
2019-05-10T07:29:30.472Z,12.01
2019-05-10T07:31:05.793Z,12.23
2019-05-10T07:32:40.591Z,12.26
2019-05-10T07:34:17.457Z,12.26
2019-05-10T07:35:51.956Z,12.36
2019-05-10T07:37:26.793Z,12.17
2019-05-10T07:39:02.644Z,11.91
2019-05-10T07:40:38.235Z,12.34
2019-05-10T07:42:12.925Z,12.34
2019-05-10T07:43:48.353Z,12.02
2019-05-10T07:45:25.730Z,12.30
2019-05-10T07:47:00.021Z,12.25
2019-05-10T07:48:34.739Z,12.20
2019-05-10T07:50:11.590Z,12.12
2019-05-10T07:51:46.433Z,12.12
2019-05-10T07:53:22.752Z,11.94
2019-05-10T07:54:57.684Z,12.00
2019-05-10T07:56:32.500Z,12.13
2019-05-10T07:58:07.423Z,12.13
2019-05-10T07:59:50.878Z,11.91
2019-05-10T08:01:29.416Z,11.91
2019-05-10T08:03:07.609Z,12.13
2019-05-10T08:04:33.568Z,12.13
2019-05-10T08:06:09.137Z,12.44
2019-05-10T08:07:43.798Z,12.44
2019-05-10T08:09:19.211Z,12.51
2019-05-10T08:10:54.222Z,12.35
2019-05-10T08:12:29.136Z,12.80
2019-05-10T08:14:06.412Z,12.80
2019-05-10T08:15:40.535Z,12.32
2019-05-10T08:17:15.187Z,12.04
2019-05-10T08:18:50.056Z,12.04
2019-05-10T08:20:38.204Z,12.45
2019-05-10T08:22:04.329Z,12.45
2019-05-10T08:23:38.045Z,12.22
2019-05-10T08:25:15.404Z,12.22
2019-05-10T08:26:49.321Z,12.45
2019-05-10T08:28:27.955Z,12.45
2019-05-10T08:30:25.077Z,12.36
2019-05-10T08:31:40.787Z,12.36
2019-05-10T08:33:15.130Z,12.16
2019-05-10T08:34:53.112Z,12.14
2019-05-10T08:36:26.453Z,12.14
2019-05-10T08:38:02.345Z,11.84
2019-05-10T08:39:45.122Z,11.88
2019-05-10T08:41:18.314Z,11.80
2019-05-10T08:43:03.205Z,11.80
2019-05-10T08:44:28.977Z,12.09
2019-05-10T08:46:03.636Z,12.09
2019-05-10T08:47:38.991Z,11.90
2019-05-10T08:49:14.071Z,11.90
2019-05-10T08:50:54.282Z,11.78
2019-05-10T08:52:30.684Z,11.52
2019-05-10T08:54:01.949Z,11.69
2019-05-10T08:55:36.611Z,12.37
2019-05-10T08:57:18.246Z,12.37
2019-05-10T08:58:48.099Z,12.03
2019-05-10T09:00:41.058Z,12.03
2019-05-10T09:02:01.952Z,12.65
2019-05-10T09:03:36.901Z,12.65
2019-05-10T09:05:12.462Z,13.36
2019-05-10T09:06:55.597Z,13.73
2019-05-10T09:08:28.566Z,13.75
2019-05-10T09:10:03.717Z,14.19
2019-05-10T09:11:38.489Z,13.84
2019-05-10T09:13:15.017Z,14.22
2019-05-10T09:14:57.445Z,14.22
2019-05-10T09:16:29.040Z,13.84
2019-05-10T09:18:06.513Z,14.32
2019-05-10T09:19:41.856Z,13.51
2019-05-10T09:21:16.208Z,13.51
2019-05-10T09:22:52.793Z,13.53
2019-05-10T09:24:27.443Z,14.24
2019-05-10T09:26:10.108Z,14.49
2019-05-10T09:27:38.745Z,13.69
2019-05-10T09:29:13.662Z,14.00
2019-05-10T09:30:59.331Z,13.26
2019-05-10T09:32:28.796Z,13.26
2019-05-10T09:34:02.501Z,13.31
2019-05-10T09:35:38.844Z,13.67
2019-05-10T09:37:17.581Z,13.59
2019-05-10T09:38:52.685Z,13.66
2019-05-10T09:40:27.664Z,14.47
2019-05-10T09:42:08.069Z,14.80
2019-05-10T09:43:39.783Z,14.50
2019-05-10T09:45:15.637Z,13.77
2019-05-10T09:46:52.451Z,13.77
2019-05-10T09:48:27.125Z,13.55
2019-05-10T09:50:02.399Z,13.34
2019-05-10T09:51:37.563Z,13.19
2019-05-10T09:53:15.311Z,13.44
2019-05-10T09:54:49.535Z,13.12
2019-05-10T09:56:24.578Z,12.78
2019-05-10T09:57:59.476Z,12.81
2019-05-10T09:59:34.136Z,13.14
2019-05-10T10:01:17.237Z,12.70
2019-05-10T10:02:47.716Z,12.85
2019-05-10T10:04:21.874Z,12.76
2019-05-10T10:06:05.167Z,12.97
2019-05-10T10:07:33.725Z,13.21
2019-05-10T10:09:11.088Z,13.58
2019-05-10T10:10:47.583Z,13.83
2019-05-10T10:12:22.443Z,13.91
2019-05-10T10:13:59.801Z,13.78
2019-05-10T10:15:34.332Z,13.76
2019-05-10T10:17:09.288Z,13.92
2019-05-10T10:18:43.992Z,13.15
2019-05-10T10:20:18.989Z,13.15
2019-05-10T10:21:53.629Z,13.14
2019-05-10T10:23:30.711Z,13.04
2019-05-10T10:25:07.195Z,13.47
2019-05-10T10:26:41.526Z,13.47
2019-05-10T10:28:19.120Z,13.35
2019-05-10T10:29:52.719Z,13.50
2019-05-10T10:31:33.102Z,14.11
2019-05-10T10:33:05.646Z,14.74
2019-05-10T10:34:43.257Z,14.96
2019-05-10T10:36:18.132Z,15.25
2019-05-10T10:37:57.332Z,16.58
2019-05-10T10:39:29.332Z,16.96
2019-05-10T10:41:03.990Z,17.04
2019-05-10T10:42:38.799Z,17.04
2019-05-10T10:44:14.433Z,17.88
2019-05-10T10:45:49.329Z,18.68
2019-05-10T10:47:30.441Z,17.68
2019-05-10T10:49:00.584Z,17.68
2019-05-10T10:50:35.283Z,17.61
2019-05-10T10:52:11.204Z,17.18
2019-05-10T10:53:47.054Z,16.42
2019-05-10T10:55:22.043Z,16.79
2019-05-10T10:56:59.278Z,16.59
2019-05-10T10:58:33.365Z,16.11
2019-05-10T11:00:08.977Z,16.88
2019-05-10T11:01:49.869Z,16.02
2019-05-10T11:03:23.990Z,16.05
2019-05-10T11:04:59.127Z,15.95
2019-05-10T11:06:33.805Z,16.01
2019-05-10T11:08:10.984Z,16.56
2019-05-10T11:09:45.002Z,16.84
2019-05-10T11:11:19.828Z,16.15
2019-05-10T11:12:56.235Z,17.01
2019-05-10T11:14:31.933Z,16.58
2019-05-10T11:16:14.086Z,16.27
2019-05-10T11:17:44.057Z,16.45
2019-05-10T11:19:20.473Z,16.71
2019-05-10T11:20:55.549Z,15.90
2019-05-10T11:22:31.759Z,15.80
2019-05-10T11:24:10.398Z,15.32
2019-05-10T11:25:54.687Z,14.62
2019-05-10T11:27:19.640Z,15.01
2019-05-10T11:28:54.271Z,14.98
2019-05-10T11:30:29.167Z,15.01
2019-05-10T11:32:14.640Z,14.89
2019-05-10T11:33:41.465Z,15.38
2019-05-10T11:35:19.031Z,15.53
2019-05-10T11:36:53.429Z,16.04
2019-05-10T11:38:28.075Z,17.56
2019-05-10T11:40:04.154Z,17.56
2019-05-10T11:41:38.862Z,17.31
2019-05-10T11:43:17.384Z,16.69
2019-05-10T11:44:54.344Z,16.47
2019-05-10T11:46:28.031Z,16.11
2019-05-10T11:48:02.900Z,16.05
2019-05-10T11:49:37.748Z,15.98
2019-05-10T11:51:17.452Z,15.89
2019-05-10T11:52:51.388Z,15.30
2019-05-10T11:54:25.511Z,15.30
2019-05-10T11:56:01.996Z,15.29
2019-05-10T11:57:43.252Z,14.84
2019-05-10T11:59:16.432Z,14.31
2019-05-10T12:00:55.938Z,14.09
2019-05-10T12:02:37.932Z,13.80
2019-05-10T12:04:05.161Z,13.83
2019-05-10T12:05:42.273Z,14.15
2019-05-10T12:07:15.887Z,14.72
2019-05-10T12:08:56.888Z,14.72
2019-05-10T12:10:27.049Z,15.01
2019-05-10T12:12:03.340Z,15.46
2019-05-10T12:13:38.327Z,15.46
2019-05-10T12:15:14.000Z,15.80
2019-05-10T12:16:54.220Z,15.96
2019-05-10T12:18:27.236Z,15.96
2019-05-10T12:20:02.839Z,17.23
2019-05-10T12:21:37.940Z,17.33
2019-05-10T12:23:22.781Z,17.83
2019-05-10T12:25:06.239Z,17.20
2019-05-10T12:28:02.338Z,17.35
2019-05-10T12:29:36.999Z,17.35
2019-05-10T12:31:15.070Z,16.57
2019-05-10T12:32:57.168Z,16.40
2019-05-10T12:34:24.702Z,16.46
2019-05-10T12:35:59.338Z,17.27
2019-05-10T12:37:34.161Z,17.40
2019-05-10T12:39:11.527Z,16.95
2019-05-10T12:40:46.032Z,16.73
2019-05-10T12:42:21.861Z,16.68
2019-05-10T12:44:02.764Z,16.19
2019-05-10T12:45:33.267Z,16.73
2019-05-10T12:47:08.169Z,16.62
2019-05-10T12:48:42.852Z,16.93
2019-05-10T12:50:17.959Z,17.38
2019-05-10T12:51:52.638Z,17.26
2019-05-10T12:53:27.524Z,17.00
2019-05-10T12:55:02.245Z,17.18
2019-05-10T12:56:44.020Z,17.37
2019-05-10T12:58:14.166Z,17.01
2019-05-10T12:59:49.063Z,17.66
2019-05-10T13:01:25.578Z,17.11
2019-05-10T13:03:12.353Z,17.60
2019-05-10T13:04:40.753Z,17.42
2019-05-10T13:06:13.150Z,15.82
2019-05-10T13:07:47.812Z,16.68
2019-05-10T13:09:36.016Z,16.96
2019-05-10T13:10:59.292Z,16.54
2019-05-10T13:12:36.749Z,16.42
2019-05-10T13:14:10.494Z,17.27
2019-05-10T13:15:46.404Z,17.37
2019-05-10T13:17:21.041Z,17.65
2019-05-10T13:18:55.848Z,17.10
2019-05-10T13:20:35.957Z,16.94
2019-05-10T13:22:07.590Z,17.01
2019-05-10T13:23:42.323Z,17.27
2019-05-10T13:25:17.476Z,16.89
2019-05-10T13:26:52.283Z,16.46
2019-05-10T13:28:27.120Z,16.79
2019-05-10T13:30:01.876Z,17.08
2019-05-10T13:31:42.012Z,17.01
2019-05-10T13:33:27.746Z,16.69
2019-05-10T13:34:49.665Z,16.72
2019-05-10T13:36:24.329Z,16.82
2019-05-10T13:38:03.961Z,16.59
2019-05-10T13:39:35.691Z,16.00
2019-05-10T13:41:10.509Z,16.47
2019-05-10T13:42:46.043Z,16.69
2019-05-10T13:44:21.046Z,16.39
2019-05-10T13:45:55.699Z,16.53
2019-05-10T13:47:30.514Z,16.56
2019-05-10T13:49:05.277Z,16.29
2019-05-10T13:50:41.209Z,16.61
2019-05-10T13:52:15.844Z,16.55
2019-05-10T13:53:53.851Z,17.15
2019-05-10T13:55:27.092Z,16.54
2019-05-10T13:57:01.937Z,16.10
2019-05-10T13:58:36.595Z,16.22
2019-05-10T14:00:11.819Z,16.03
2019-05-10T14:01:49.780Z,15.88
2019-05-10T14:03:22.975Z,15.98
2019-05-10T14:04:57.638Z,16.74
2019-05-10T14:06:32.531Z,16.25
2019-05-10T14:08:07.174Z,16.25
2019-05-10T14:09:42.033Z,16.37
2019-05-10T14:11:16.709Z,16.67
2019-05-10T14:12:56.150Z,16.55
2019-05-10T14:14:27.936Z,16.87
2019-05-10T14:16:03.156Z,16.82
2019-05-10T14:17:37.846Z,16.99
2019-05-10T14:19:15.909Z,16.77
2019-05-10T14:20:50.105Z,16.80
2019-05-10T14:22:25.005Z,16.57
2019-05-10T14:23:59.680Z,17.00
2019-05-10T14:25:36.639Z,16.95
2019-05-10T14:27:10.866Z,17.25
2019-05-10T14:28:47.226Z,17.45
2019-05-10T14:30:22.113Z,17.62
2019-05-10T14:31:56.946Z,17.01
2019-05-10T14:33:31.592Z,17.03
2019-05-10T14:35:07.093Z,16.05
2019-05-10T14:36:43.548Z,16.05
2019-05-10T14:38:18.377Z,16.38
2019-05-10T14:39:53.122Z,16.31
2019-05-10T14:41:27.971Z,16.59
2019-05-10T14:43:02.659Z,16.59
2019-05-10T14:44:38.664Z,16.72
2019-05-10T14:46:14.171Z,16.70
2019-05-10T14:47:50.502Z,16.09
2019-05-10T14:49:25.340Z,15.76
2019-05-10T14:51:03.129Z,15.69
2019-05-10T14:52:36.539Z,15.46
2019-05-10T14:54:11.416Z,15.40
2019-05-10T14:55:46.056Z,15.53
2019-05-10T14:57:20.908Z,15.72
2019-05-10T14:58:55.570Z,15.91
2019-05-10T15:00:30.558Z,15.79
2019-05-10T15:02:05.222Z,16.22
2019-05-10T15:03:45.507Z,16.43
2019-05-10T15:05:18.308Z,16.43
2019-05-10T15:06:53.180Z,16.73
2019-05-10T15:08:28.969Z,16.40
2019-05-10T15:10:04.093Z,15.99
2019-05-10T15:11:38.755Z,15.65
2019-05-10T15:13:13.689Z,15.86
2019-05-10T15:14:48.353Z,15.99
2019-05-10T15:16:27.076Z,15.92
2019-05-10T15:18:01.915Z,15.88
2019-05-10T15:19:36.062Z,15.71
2019-05-10T15:21:10.716Z,15.77
2019-05-10T15:22:46.509Z,16.43
2019-05-10T15:24:21.229Z,16.43
2019-05-10T15:26:03.596Z,16.26
2019-05-10T15:27:35.563Z,15.63
2019-05-10T15:29:14.873Z,14.93
2019-05-10T15:30:52.063Z,14.73
2019-05-10T15:32:23.332Z,14.69
2019-05-10T15:33:58.067Z,14.92
2019-05-10T15:35:34.186Z,15.17
2019-05-10T15:37:10.555Z,15.33
2019-05-10T15:38:50.787Z,15.34
2019-05-10T15:40:22.262Z,15.57
2019-05-10T15:41:59.315Z,15.62
2019-05-10T15:43:34.720Z,15.63
2019-05-10T15:45:14.670Z,15.74
2019-05-10T15:46:46.472Z,15.57
2019-05-10T15:48:21.396Z,15.19
2019-05-10T15:50:00.124Z,14.93
2019-05-10T15:51:36.280Z,14.64
2019-05-10T15:53:08.938Z,14.87
2019-05-10T15:54:46.886Z,14.87
2019-05-10T15:56:20.185Z,15.02
2019-05-10T15:57:57.833Z,15.12
2019-05-10T15:59:33.652Z,15.15
2019-05-10T16:01:08.379Z,14.92
2019-05-10T16:02:43.019Z,15.00
2019-05-10T16:04:17.909Z,14.98
2019-05-10T16:06:00.331Z,15.03
2019-05-10T16:07:29.119Z,15.31
2019-05-10T16:09:17.133Z,15.28
2019-05-10T16:10:41.683Z,15.32
2019-05-10T16:12:16.407Z,15.00
2019-05-10T16:13:54.668Z,15.12
2019-05-10T16:15:27.657Z,15.02
2019-05-10T16:17:02.513Z,14.93
2019-05-10T16:18:39.861Z,14.90
2019-05-10T16:20:13.856Z,14.99
2019-05-10T16:21:51.982Z,14.68
2019-05-10T16:23:25.032Z,14.83
2019-05-10T16:25:02.501Z,14.70
2019-05-10T16:26:36.259Z,14.74
2019-05-10T16:28:15.513Z,14.45
2019-05-10T16:29:47.439Z,14.56
2019-05-10T16:31:22.095Z,14.43
2019-05-10T16:32:56.950Z,14.38
2019-05-10T16:34:32.656Z,14.40
2019-05-10T16:36:09.282Z,14.53
2019-05-10T16:37:43.957Z,14.54
2019-05-10T16:39:18.846Z,14.42
2019-05-10T16:40:58.714Z,14.41
2019-05-10T16:42:34.590Z,14.68
2019-05-10T16:44:06.685Z,14.44
2019-05-10T16:45:47.375Z,14.49
2019-05-10T16:47:23.417Z,14.49
2019-05-10T16:48:58.289Z,14.36
2019-05-10T16:50:33.889Z,14.53
2019-05-10T16:52:08.979Z,14.75
2019-05-10T16:54:01.858Z,14.53
2019-05-10T16:55:41.134Z,14.56
2019-05-10T16:57:13.204Z,14.50
2019-05-10T16:58:53.092Z,14.35
2019-05-10T17:00:25.065Z,14.30
2019-05-10T17:02:04.458Z,14.38
2019-05-10T17:03:36.296Z,14.49
2019-05-10T17:05:15.143Z,14.71
2019-05-10T17:06:47.616Z,14.61
2019-05-10T17:08:22.801Z,14.58
2019-05-10T17:09:57.500Z,14.50
2019-05-10T17:11:32.361Z,14.32
2019-05-10T17:13:07.006Z,14.21
2019-05-10T17:14:41.835Z,14.12
2019-05-10T17:16:18.529Z,14.25
2019-05-10T17:17:53.029Z,14.01
2019-05-10T17:19:33.314Z,14.13
2019-05-10T17:21:04.188Z,13.94
2019-05-10T17:23:07.645Z,13.92
2019-05-10T17:24:36.059Z,13.86
2019-05-10T17:26:10.773Z,13.85
2019-05-10T17:27:50.443Z,13.86
2019-05-10T17:29:22.009Z,13.86
2019-05-10T17:30:59.825Z,13.84
2019-05-10T17:32:33.214Z,13.84
2019-05-10T17:34:08.125Z,14.09
2019-05-10T17:35:44.164Z,13.99
2019-05-10T17:37:19.258Z,13.99
2019-05-10T17:38:55.587Z,13.96
2019-05-10T17:40:31.604Z,13.73
2019-05-10T17:42:06.306Z,13.73
2019-05-10T17:43:41.163Z,13.65
2019-05-10T17:45:15.973Z,13.65
2019-05-10T17:46:55.382Z,13.56
2019-05-10T17:48:27.178Z,13.56
2019-05-10T17:50:03.125Z,13.45
2019-05-10T17:51:37.800Z,13.45
2019-05-10T17:53:12.674Z,13.30
2019-05-10T17:54:47.323Z,13.25
2019-05-10T17:56:22.346Z,13.06
2019-05-10T17:57:57.021Z,12.95
2019-05-10T17:59:32.956Z,12.99
2019-05-10T18:01:20.881Z,12.99
2019-05-10T18:02:55.741Z,12.84
2019-05-10T18:04:30.478Z,12.84
2019-05-10T18:06:05.930Z,12.70
2019-05-10T18:07:40.668Z,12.70
2019-05-10T18:09:15.527Z,12.64
2019-05-10T18:10:50.197Z,12.55
2019-05-10T18:12:27.118Z,12.55
2019-05-10T18:14:01.405Z,12.48
2019-05-10T18:15:36.325Z,12.48
2019-05-10T18:17:11.019Z,12.33
2019-05-10T18:18:48.228Z,12.33
2019-05-10T18:20:22.364Z,12.31
2019-05-10T18:22:00.793Z,12.31
2019-05-10T18:23:33.586Z,12.35
2019-05-10T18:25:19.277Z,12.23
2019-05-10T18:26:45.052Z,12.17
2019-05-10T18:28:21.636Z,12.17
2019-05-10T18:29:57.347Z,12.13
2019-05-10T18:31:32.168Z,12.07
2019-05-10T18:33:12.533Z,11.97
2019-05-10T18:34:46.969Z,11.97
2019-05-10T18:36:26.745Z,11.90
2019-05-10T18:37:59.563Z,11.92
2019-05-10T18:39:33.371Z,11.78
2019-05-10T18:41:09.986Z,11.63
2019-05-10T18:42:46.341Z,11.63
2019-05-10T18:44:21.391Z,11.64
2019-05-10T18:46:01.197Z,11.62
2019-05-10T18:47:32.585Z,11.62
2019-05-10T18:49:07.228Z,11.60
2019-05-10T18:50:45.289Z,11.39
2019-05-10T18:52:18.557Z,11.39
2019-05-10T18:53:53.697Z,11.42
2019-05-10T18:55:28.469Z,11.38
2019-05-10T18:57:04.620Z,11.38
2019-05-10T18:58:43.347Z,11.36
2019-05-10T19:00:23.112Z,11.33
2019-05-10T19:01:55.181Z,11.34
2019-05-10T19:03:33.713Z,11.34
2019-05-10T19:05:07.584Z,11.40
2019-05-10T19:06:44.273Z,11.29
2019-05-10T19:08:19.203Z,11.26
2019-05-10T19:09:54.431Z,11.26
2019-05-10T19:11:33.109Z,11.07
2019-05-10T19:13:06.573Z,11.00
2019-05-10T19:14:41.839Z,11.00
2019-05-10T19:16:18.119Z,10.99
2019-05-10T19:17:52.763Z,11.01
2019-05-10T19:19:27.574Z,10.91
2019-05-10T19:21:02.533Z,11.01
2019-05-10T19:22:41.379Z,10.86
2019-05-10T19:24:14.023Z,10.67
2019-05-10T19:25:51.809Z,10.64
2019-05-10T19:27:25.397Z,10.71
2019-05-10T19:29:05.279Z,10.55
2019-05-10T19:30:36.735Z,10.56
2019-05-10T19:32:17.907Z,10.42
2019-05-10T19:33:48.050Z,10.36
2019-05-10T19:35:22.938Z,10.32
2019-05-10T19:36:57.687Z,10.37
2019-05-10T19:38:32.559Z,10.39
2019-05-10T19:40:08.278Z,10.55
2019-05-10T19:41:43.181Z,10.58
2019-05-10T19:43:21.466Z,10.53
2019-05-10T19:44:56.486Z,10.37
2019-05-10T19:46:39.194Z,10.39
2019-05-10T19:48:07.791Z,10.24
2019-05-10T19:49:45.942Z,10.25
2019-05-10T19:51:22.485Z,10.14
2019-05-10T19:53:03.105Z,10.06
2019-05-10T19:54:33.046Z,10.10
2019-05-10T19:56:07.692Z,9.98
2019-05-10T19:59:35.243Z,9.91
2019-05-10T20:01:10.082Z,9.89
2019-05-10T20:02:44.936Z,9.81
2019-05-10T20:04:19.982Z,9.82
2019-05-10T20:05:54.754Z,9.71
2019-05-10T20:07:44.609Z,9.72
2019-05-10T20:09:07.576Z,9.72
2019-05-10T20:10:42.572Z,9.70
2019-05-10T20:12:19.250Z,9.59
2019-05-10T20:13:54.343Z,9.55
2019-05-10T20:15:29.253Z,9.57
2019-05-10T20:17:04.339Z,9.72
2019-05-10T20:18:39.111Z,9.71
2019-05-10T20:20:14.185Z,9.70
2019-05-10T20:21:48.926Z,9.76
2019-05-10T20:23:23.748Z,9.87
2019-05-10T20:25:02.745Z,10.03
2019-05-10T20:26:37.720Z,10.03
2019-05-10T20:28:12.455Z,10.11
2019-05-10T20:29:47.304Z,10.17
2019-05-10T20:31:21.994Z,10.19
2019-05-10T20:32:56.846Z,10.21
2019-05-10T20:34:31.485Z,10.14
2019-05-10T20:36:06.388Z,10.05
2019-05-10T20:37:41.038Z,10.00
2019-05-10T20:39:15.950Z,9.97
2019-05-10T20:40:50.926Z,9.74